Flight Track Log - Related Links

Times and Time Zones

All times are in EDT time to prevent confusion due to time zone crossing. See the AFL1461 flight status page for this flight to view local times or setup timezone preferences in your user account.

Time Position Orientation Groundspeed Altitude Reporting Facility
EDT Latitude Longitude Course Direction KTS MPH feet Rate Location/Type
Wed 09:22:20 AM 56.8956 68.6918 281° West 457 526 36,000  Level FlightAware ADS-B (USTR / TJM)
Wed 09:22:28 AM 56.8980 68.6676 280° West 457 526 36,000  Level FlightAware ADS-B (USTR / TJM)
Wed 09:22:51 AM 56.9070 68.5775 281° West 456 525 36,000  Level FlightAware ADS-B (USTR / TJM)
Wed 09:23:08 AM 56.9125 68.5222 280° West 456 525 36,000  Level FlightAware ADS-B (USTR / TJM)
Wed 09:23:22 AM 56.9188 68.4586 281° West 456 525 36,000  Level FlightAware ADS-B (USTR / TJM)
Wed 09:23:48 AM 56.9272 68.3707 280° West 457 526 36,000  Level FlightAware ADS-B (USTR / TJM)
Wed 09:23:51 AM 56.9297 68.3442 280° West 456 525 36,000  Level FlightAware ADS-B (USTR / TJM)
Wed 09:24:21 AM 56.9402 68.2311 280° West 455 524 36,000  Level FlightAware ADS-B (USTR / TJM)
Wed 09:24:28 AM 56.9415 68.2168 280° West 456 525 36,000  Level FlightAware ADS-B (USTR / TJM)
Wed 09:24:51 AM 56.9508 68.1182 280° West 455 524 36,000  Level FlightAware ADS-B (USTR / TJM)
Wed 09:25:08 AM 56.9567 68.0560 280° West 456 525 36,000  Level FlightAware ADS-B (USTR / TJM)
Wed 09:25:21 AM 56.9616 68.0044 280° West 456 525 36,000  Level FlightAware ADS-B (USTR / TJM)
Wed 09:25:47 AM 56.9706 67.9094 280° West 457 526 36,000  Level FlightAware ADS-B (USTR / TJM)
Wed 09:25:51 AM 56.9723 67.8911 280° West 456 525 36,000  Level FlightAware ADS-B (USTR / TJM)
Wed 09:26:22 AM 56.9837 67.7707 280° West 458 527 36,000  Level FlightAware ADS-B (USTR / TJM)
Wed 09:26:29 AM 56.9854 67.7516 280° West 458 527 36,000  Level FlightAware ADS-B (USTR / TJM)
Wed 09:26:50 AM 56.9936 67.6614 280° West 459 528 36,000  Level FlightAware ADS-B (USTR / TJM)
Wed 09:27:09 AM 56.9995 67.5954 279° West 460 529 36,000  Level FlightAware ADS-B (USTR / TJM)
Wed 09:27:21 AM 57.0040 67.5456 280° West 461 531 36,000  Level FlightAware ADS-B (USTR / TJM)
Wed 09:27:47 AM 57.0130 67.4440 279° West 461 531 36,000  Level FlightAware ADS-B (USTR / TJM)
Wed 09:27:51 AM 57.0143 67.4286 280° West 461 531 36,000  Level FlightAware ADS-B (USTR / TJM)
Wed 09:28:22 AM 57.0245 67.3114 280° West 461 531 36,000  Level FlightAware ADS-B (USTR / TJM)
Wed 09:28:30 AM 57.0268 67.2852 279° West 462 532 36,000  Level FlightAware ADS-B (USTR / TJM)
Wed 09:28:50 AM 57.0344 67.1996 280° West 462 532 36,000  Level FlightAware ADS-B (USTR / TJM)
Wed 09:29:10 AM 57.0407 67.1261 279° West 463 533 36,000  Level FlightAware ADS-B (USTR / TJM)
Wed 09:29:20 AM 57.0441 67.0875 279° West 462 532 36,000  Level FlightAware ADS-B (USTR / TJM)
Wed 09:29:49 AM 57.0537 66.9745 279° West 463 533 36,000  Level FlightAware ADS-B (USTR / TJM)
Wed 09:29:51 AM 57.0547 66.9637 279° West 462 532 36,000  Level FlightAware ADS-B (USTR / TJM)
Wed 09:30:20 AM 57.0634 66.8569 278° West 462 532 36,000  Level FlightAware ADS-B (USTR / TJM)
Wed 09:30:29 AM 57.0650 66.8352 278° West 462 532 36,000  Level FlightAware ADS-B (USTR / TJM)
Wed 09:30:51 AM 57.0722 66.7351 278° West 461 531 36,000  Level FlightAware ADS-B (USTR / TJM)
Wed 09:31:00 AM 57.0747 66.7001 277° West 462 532 36,000  Level FlightAware ADS-B (USTR / TJM)
Wed 09:33:00 AM 57.1075 66.2375 278° West 460 529 36,000  Level FlightAware ADS-B (USTR / TJM)
Wed 09:33:12 AM 57.1103 66.1980 277° West 461 531 36,000  Level FlightAware ADS-B (USTR / TJM)
Wed 09:33:31 AM 57.1160 66.1159 278° West 460 529 36,000  Level FlightAware ADS-B (USTR / TJM)
Wed 09:34:26 AM 57.1304 65.9043 278° West 460 529 36,000  Level FlightAware ADS-B (USTR / TJM)
Wed 09:34:33 AM 57.1323 65.8772 277° West 461 531 36,000  Level FlightAware ADS-B (USTR / TJM)
Wed 09:36:11 AM 57.1573 65.4956 277° West 462 532 36,000  Level FlightAware ADS-B (USTR / TJM)
Wed 09:36:16 AM 57.1579 65.4878 277° West 462 532 36,000  Level FlightAware ADS-B (USTR / TJM)
Wed 09:37:02 AM 57.1679 65.3013 277° West 462 532 36,000  Level FlightAware ADS-B (USTR / TJM)
Wed 09:38:32 AM 57.1591 64.9392 268° West 462 532 36,000  Level FlightAware ADS-B (USTR / TJM)
Wed 09:38:38 AM 57.1588 64.9282 267° West 463 533 36,000  Level FlightAware ADS-B (USTR / TJM)
Wed 09:38:57 AM 57.1567 64.8482 268° West 462 532 36,000  Level FlightAware ADS-B (USTR / TJM)
Wed 09:39:30 AM 57.1533 64.7259 268° West 462 532 36,000  Level FlightAware ADS-B (USTR / TJM)
Wed 09:39:59 AM 57.1497 64.6019 268° West 462 532 36,000  Level FlightAware ADS-B (USTR / TJM)
Wed 09:48:35 AM 57.1336 62.5561 268° West 462 532 36,000  Level FlightAware ADS-B (USTR / TJM)
Wed 09:51:46 AM 57.1076 61.8245 254° West 465 535 36,000  Level FlightAware ADS-B (USTR / TJM)
Wed 09:52:21 AM 57.0858 61.6869 254° West 464 534 36,000  Level FlightAware ADS-B (USTR / TJM)
Wed 09:52:38 AM 57.0753 61.6205 254° West 464 534 36,000  Level FlightAware ADS-B (USTR / TJM)
Wed 09:53:20 AM 57.0612 61.5331 254° West 463 533 36,000 -214 Level FlightAware ADS-B (USTR / TJM)
Wed 11:41:09 AM 55.9763 38.7183 North -215 Descending FlightAware ADS-B (UUWV / MOW)
Wed 11:45:51 AM 55.9572 38.0508 275° West 244 281 11,800 2,032 Climbing FlightAware ADS-B (UUWV / MOW)
Wed 11:46:00 AM 55.9726 37.4146 269° West  Level Estimated
Wed 11:46:25 AM 55.9606 37.9860 276° West 256 295 10,700  Level FlightAware ADS-B (UUWV / MOW)
Wed 11:46:58 AM 55.9656 37.8958 276° West 262 302 9,800 -1,645 Descending FlightAware ADS-B (UUWV / MOW)
Wed 11:47:27 AM 55.9689 37.8356 276° West 262 302 9,000 -1,600 Descending FlightAware ADS-B (UUWV / MOW)
Wed 11:47:43 AM 55.9708 37.8003 275° West 263 303 8,600 -1,355 Descending FlightAware ADS-B (UUWV / MOW)
Wed 11:48:29 AM 55.9759 37.7018 275° West 260 299 7,600 -1,180 Descending FlightAware ADS-B (UUWV / MOW)
Wed 11:48:44 AM 55.9775 37.6695 275° West 252 290 7,400 -667 Descending FlightAware ADS-B (UUWV / MOW)
Wed 11:49:05 AM 55.9796 37.6281 275° West 232 267 7,200 -857 Descending FlightAware ADS-B (UUWV / MOW)
Wed 11:50:57 AM 56.0511 37.6075 44° Northeast 246 283 5,500 -881 Descending FlightAware ADS-B (UUWV / MOW)
Wed 11:51:28 AM 56.0817 37.6750 76° East 245 282 5,100 -1,067 Descending FlightAware ADS-B (UUWV / MOW)
Wed 11:51:42 AM 56.0812 37.7024 104° East 236 272 4,700 -1,355 Descending FlightAware ADS-B (UUWV / MOW)
Wed 11:51:59 AM 56.0717 37.7287 136° Southeast 224 258 4,400 -1,161 Descending FlightAware ADS-B (UUWV / MOW)
Wed 11:52:13 AM 56.0598 37.7385 163° South 211 243 4,100 -1,241 Descending FlightAware ADS-B (UUWV / MOW)
Wed 11:52:28 AM 56.0468 37.7359 204° Southwest 193 222 3,800 -1,200 Descending FlightAware ADS-B (UUWV / MOW)
Wed 11:52:43 AM 56.0343 37.7227 213° Southwest 187 215 3,500 -933 Descending FlightAware ADS-B (UUWV / MOW)
Wed 11:53:13 AM 56.0153 37.6960 236° Southwest 170 196 3,100 -837 Descending FlightAware ADS-B (UUWV / MOW)
Wed 11:53:26 AM 56.0135 37.6841 258° West 164 189 2,900 -923 Descending FlightAware ADS-B (UUWV / MOW)
Wed 11:55:00 AM 55.9726 37.4146 255° West  Level Estimated
Wed 11:56:00 AM 55.9726 37.4146 North  Level Estimated

Login

Don't have an account? Register now (free) for customized features, flight alerts, and more!